createdAt,value
2018-03-08T00:01:11.238Z,71.40
2018-03-08T00:03:45.520Z,71.78
2018-03-08T00:06:19.133Z,71.86
2018-03-08T00:08:50.963Z,72.04
2018-03-08T00:11:22.957Z,71.52
2018-03-08T00:13:54.633Z,71.54
2018-03-08T00:16:27.038Z,71.49
2018-03-08T00:18:59.363Z,71.04
2018-03-08T00:21:31.462Z,70.84
2018-03-08T00:24:02.870Z,70.71
2018-03-08T00:26:35.044Z,70.27
2018-03-08T00:29:07.194Z,70.08
2018-03-08T00:31:38.768Z,69.75
2018-03-08T00:34:10.238Z,69.70
2018-03-08T00:36:42.068Z,69.43
2018-03-08T00:39:13.474Z,69.17
2018-03-08T00:41:49.022Z,69.26
2018-03-08T00:44:20.872Z,68.95
2018-03-08T00:46:54.424Z,69.38
2018-03-08T00:49:26.134Z,69.00
2018-03-08T00:51:57.373Z,69.04
2018-03-08T00:54:29.218Z,68.54
2018-03-08T00:57:01.281Z,68.06
2018-03-08T00:59:34.516Z,68.55
2018-03-08T01:02:07.181Z,68.46
2018-03-08T01:04:38.505Z,67.96
2018-03-08T01:07:10.951Z,68.28
2018-03-08T01:09:43.317Z,68.18
2018-03-08T01:12:15.141Z,68.01
2018-03-08T01:14:47.314Z,68.18
2018-03-08T01:17:26.411Z,67.94
2018-03-08T01:19:58.019Z,67.35
2018-03-08T01:22:29.735Z,67.27
2018-03-08T01:25:02.454Z,67.59
2018-03-08T01:27:34.799Z,67.18
2018-03-08T01:30:08.559Z,67.19
2018-03-08T01:32:41.408Z,67.13
2018-03-08T01:35:13.389Z,67.29
2018-03-08T01:37:47.383Z,67.61
2018-03-08T01:40:18.749Z,67.22
2018-03-08T01:42:52.237Z,67.05
2018-03-08T01:45:23.758Z,66.84
2018-03-08T01:47:55.499Z,67.20
2018-03-08T01:50:28.830Z,67.23
2018-03-08T01:53:03.094Z,66.86
2018-03-08T01:55:34.465Z,66.90
2018-03-08T01:58:06.772Z,66.78
2018-03-08T02:00:38.233Z,67.10
2018-03-08T02:03:09.559Z,66.93
2018-03-08T02:05:44.096Z,66.87
2018-03-08T02:08:16.791Z,67.25
2018-03-08T02:10:50.678Z,66.96
2018-03-08T02:13:24.474Z,66.75
2018-03-08T02:16:07.146Z,66.64
2018-03-08T02:18:38.885Z,66.44
2018-03-08T02:21:10.193Z,66.50
2018-03-08T02:23:41.931Z,67.05
2018-03-08T02:26:13.810Z,66.81
2018-03-08T02:28:46.144Z,66.73
2018-03-08T02:31:17.237Z,66.51
2018-03-08T02:33:59.320Z,66.34
2018-03-08T02:36:30.409Z,66.46
2018-03-08T02:39:02.119Z,66.15
2018-03-08T02:41:34.723Z,66.39
2018-03-08T02:44:05.742Z,66.23
2018-03-08T02:46:36.975Z,66.06
2018-03-08T02:49:08.520Z,66.21
2018-03-08T02:51:39.480Z,66.09
2018-03-08T02:54:11.004Z,66.51
2018-03-08T02:56:42.376Z,66.79
2018-03-08T02:59:14.002Z,66.47
2018-03-08T03:01:54.930Z,66.64
2018-03-08T03:04:26.555Z,66.64
2018-03-08T03:06:57.421Z,66.82
2018-03-08T03:09:28.813Z,67.16
2018-03-08T03:12:00.126Z,66.76
2018-03-08T03:14:30.828Z,66.54
2018-03-08T03:17:02.305Z,67.22
2018-03-08T03:19:33.919Z,66.87
2018-03-08T03:22:04.573Z,66.37
2018-03-08T03:24:35.847Z,66.20
2018-03-08T03:27:06.620Z,66.24
2018-03-08T03:29:37.329Z,66.07
2018-03-08T03:32:08.644Z,66.16
2018-03-08T03:34:39.672Z,66.63
2018-03-08T03:37:10.625Z,66.41
2018-03-08T03:46:09.658Z,66.83
2018-03-08T03:48:40.568Z,66.34
2018-03-08T03:51:11.554Z,66.12
2018-03-08T03:53:42.359Z,66.02
2018-03-08T03:59:06.984Z,66.69
2018-03-08T04:01:38.669Z,66.31
2018-03-08T04:04:11.074Z,65.93
2018-03-08T04:06:41.534Z,66.03
2018-03-08T04:09:13.088Z,65.60
2018-03-08T04:11:44.156Z,65.73
2018-03-08T04:14:14.677Z,66.01
2018-03-08T04:16:45.757Z,66.14
2018-03-08T04:19:17.206Z,66.18
2018-03-08T04:21:47.874Z,65.78
2018-03-08T04:24:19.807Z,65.57
2018-03-08T04:26:50.409Z,65.18
2018-03-08T04:29:21.163Z,66.26
2018-03-08T04:31:52.867Z,66.02
2018-03-08T04:34:23.400Z,65.51
2018-03-08T04:36:55.458Z,66.41
2018-03-08T04:39:26.970Z,67.51
2018-03-08T04:41:58.493Z,67.64
2018-03-08T04:45:33.073Z,67.17
2018-03-08T04:48:04.215Z,66.92
2018-03-08T04:50:35.995Z,66.20
2018-03-08T04:53:06.540Z,65.54
2018-03-08T04:55:37.703Z,65.14
2018-03-08T04:58:08.990Z,65.86
2018-03-08T05:00:40.403Z,65.96
2018-03-08T05:03:11.533Z,65.71
2018-03-08T05:05:42.441Z,66.90
2018-03-08T05:08:13.050Z,66.75
2018-03-08T05:10:44.143Z,66.92
2018-03-08T05:13:15.003Z,67.42
2018-03-08T05:15:46.887Z,67.62
2018-03-08T05:18:18.162Z,66.76
2018-03-08T05:20:48.839Z,66.69
2018-03-08T05:23:19.871Z,66.89
2018-03-08T05:25:51.989Z,66.55
2018-03-08T05:28:23.294Z,67.10
2018-03-08T05:30:55.208Z,66.48
2018-03-08T05:33:26.359Z,66.84
2018-03-08T05:36:03.603Z,67.55
2018-03-08T05:38:34.519Z,67.93
2018-03-08T05:41:06.762Z,67.74
2018-03-08T05:43:39.328Z,66.62
2018-03-08T05:46:11.577Z,66.16
2018-03-08T05:48:42.804Z,66.94
2018-03-08T05:51:14.036Z,66.87
2018-03-08T05:53:45.610Z,66.17
2018-03-08T05:56:17.426Z,65.75
2018-03-08T05:58:48.830Z,65.90
2018-03-08T06:01:22.125Z,66.71
2018-03-08T06:03:53.772Z,67.67
2018-03-08T06:06:25.702Z,66.87
2018-03-08T06:08:57.283Z,67.07
2018-03-08T06:11:29.605Z,68.00
2018-03-08T06:14:02.400Z,66.81
2018-03-08T06:16:34.629Z,66.10
2018-03-08T06:21:52.762Z,66.51
2018-03-08T06:24:24.503Z,65.80
2018-03-08T06:26:57.532Z,66.02
2018-03-08T06:29:30.362Z,66.27
2018-03-08T06:32:13.366Z,65.79
2018-03-08T06:34:46.461Z,65.33
2018-03-08T06:37:19.661Z,65.47
2018-03-08T06:39:50.977Z,65.66
2018-03-08T06:42:25.732Z,66.19
2018-03-08T06:44:57.265Z,67.92
2018-03-08T06:47:31.358Z,67.24
2018-03-08T06:50:04.271Z,66.81
2018-03-08T06:52:36.079Z,67.06
2018-03-08T06:55:14.248Z,67.41
2018-03-08T06:57:45.478Z,67.22
2018-03-08T07:00:22.726Z,66.54
2018-03-08T07:02:59.951Z,66.30
2018-03-08T07:05:32.211Z,66.40
2018-03-08T07:08:03.887Z,66.00
2018-03-08T07:10:35.341Z,66.60
2018-03-08T07:13:20.985Z,66.35
2018-03-08T07:15:54.358Z,65.12
2018-03-08T07:18:28.948Z,65.10
2018-03-08T07:21:01.286Z,65.20
2018-03-08T07:23:34.568Z,64.07
2018-03-08T07:26:16.053Z,63.80
2018-03-08T07:28:47.910Z,63.44
2018-03-08T07:31:21.410Z,64.92
2018-03-08T07:33:54.415Z,64.50
2018-03-08T07:36:26.294Z,63.98
2018-03-08T07:38:58.095Z,63.98
2018-03-08T07:41:29.475Z,63.62
2018-03-08T07:44:08.891Z,65.77
2018-03-08T07:46:41.604Z,64.26
2018-03-08T07:49:15.733Z,63.95
2018-03-08T07:51:47.248Z,62.46
2018-03-08T07:54:19.449Z,64.32
2018-03-08T07:56:52.584Z,64.23
2018-03-08T07:59:24.133Z,62.50
2018-03-08T08:01:56.322Z,60.72
2018-03-08T08:04:38.816Z,61.77
2018-03-08T08:11:37.389Z,60.79
2018-03-08T08:16:59.120Z,57.53
2018-03-08T08:19:30.981Z,59.28
2018-03-08T08:22:02.910Z,58.09
2018-03-08T08:24:35.004Z,57.51
2018-03-08T08:27:06.684Z,57.04
2018-03-08T08:29:38.062Z,57.76
2018-03-08T08:32:12.258Z,57.63
2018-03-08T08:34:44.861Z,60.32
2018-03-08T08:37:24.331Z,60.83
2018-03-08T08:39:56.197Z,59.13
2018-03-08T08:42:28.894Z,58.30
2018-03-08T08:45:05.576Z,58.25
2018-03-08T08:47:38.898Z,59.22
2018-03-08T08:50:11.755Z,59.24
2018-03-08T08:52:44.181Z,59.83
2018-03-08T08:55:19.230Z,57.71
2018-03-08T08:57:55.646Z,59.11
2018-03-08T09:00:30.593Z,58.59
2018-03-08T09:03:02.640Z,57.45
2018-03-08T09:05:34.815Z,59.16
2018-03-08T09:08:07.218Z,59.62
2018-03-08T09:10:39.576Z,59.54
2018-03-08T09:13:11.407Z,59.54
2018-03-08T09:15:46.961Z,58.52
2018-03-08T09:18:22.442Z,59.99
2018-03-08T09:20:53.922Z,60.93
2018-03-08T09:23:26.109Z,59.92
2018-03-08T09:25:57.464Z,60.55
2018-03-08T09:28:29.256Z,58.30
2018-03-08T09:31:01.052Z,57.97
2018-03-08T09:33:32.748Z,56.87
2018-03-08T09:36:04.071Z,56.92
2018-03-08T09:38:35.924Z,56.98
2018-03-08T09:41:08.453Z,54.66
2018-03-08T09:43:40.311Z,56.34
2018-03-08T09:46:14.944Z,54.21
2018-03-08T09:48:46.697Z,54.19
2018-03-08T09:51:21.415Z,55.89
2018-03-08T09:53:53.955Z,58.76
2018-03-08T09:56:28.746Z,58.58
2018-03-08T09:59:00.040Z,59.29
2018-03-08T10:01:31.478Z,58.97
2018-03-08T10:04:02.730Z,59.81
2018-03-08T10:06:33.836Z,60.46
2018-03-08T10:09:06.517Z,59.87
2018-03-08T10:11:38.633Z,60.20
2018-03-08T10:14:11.030Z,59.29
2018-03-08T10:16:43.402Z,59.26
2018-03-08T10:19:15.180Z,57.18
2018-03-08T10:21:47.244Z,55.89
2018-03-08T10:24:22.493Z,56.00
2018-03-08T10:27:04.623Z,57.14
2018-03-08T10:29:37.714Z,56.35
2018-03-08T10:32:10.842Z,57.48
2018-03-08T10:34:42.110Z,59.02
2018-03-08T10:40:08.755Z,57.87
2018-03-08T10:45:21.769Z,58.86
2018-03-08T10:48:15.084Z,58.70
2018-03-08T10:50:48.267Z,59.55
2018-03-08T10:53:50.722Z,58.39
2018-03-08T10:56:25.433Z,59.16
2018-03-08T10:58:57.958Z,58.08
2018-03-08T11:01:35.356Z,58.03
2018-03-08T11:04:12.978Z,57.61
2018-03-08T11:06:44.256Z,57.20
2018-03-08T11:09:17.175Z,55.95
2018-03-08T11:11:49.607Z,56.37
2018-03-08T11:14:21.226Z,56.80
2018-03-08T11:16:56.998Z,56.48
2018-03-08T11:19:30.404Z,55.80
2018-03-08T11:22:02.069Z,56.80
2018-03-08T11:24:36.192Z,56.41
2018-03-08T11:27:07.526Z,56.13
2018-03-08T11:29:38.603Z,55.30
2018-03-08T11:32:10.460Z,55.60
2018-03-08T11:34:42.002Z,55.69
2018-03-08T11:37:14.052Z,56.02
2018-03-08T11:39:45.564Z,55.50
2018-03-08T11:42:17.934Z,55.61
2018-03-08T11:44:50.285Z,56.27
2018-03-08T11:47:24.672Z,56.54
2018-03-08T11:49:56.666Z,57.86
2018-03-08T11:52:35.240Z,57.35
2018-03-08T11:55:07.115Z,57.12
2018-03-08T11:57:44.108Z,56.72
2018-03-08T12:00:40.592Z,55.99
2018-03-08T12:03:12.948Z,55.11
2018-03-08T12:05:45.498Z,55.06
2018-03-08T12:08:16.476Z,54.63
2018-03-08T12:10:48.589Z,55.88
2018-03-08T12:13:34.925Z,58.05
2018-03-08T12:16:09.882Z,58.26
2018-03-08T12:18:41.236Z,58.97
2018-03-08T12:21:17.558Z,59.74
2018-03-08T12:23:49.157Z,60.40
2018-03-08T12:26:22.277Z,61.31
2018-03-08T12:28:56.805Z,62.31
2018-03-08T12:31:28.039Z,61.36
2018-03-08T12:34:00.728Z,62.14
2018-03-08T12:36:33.579Z,61.04
2018-03-08T12:39:05.294Z,62.44
2018-03-08T12:41:37.794Z,62.90
2018-03-08T12:44:11.539Z,63.60
2018-03-08T12:46:43.267Z,64.34
2018-03-08T12:49:15.180Z,63.73
2018-03-08T12:51:47.743Z,63.30
2018-03-08T12:54:19.359Z,62.33
2018-03-08T12:56:51.205Z,62.70
2018-03-08T12:59:22.599Z,62.39
2018-03-08T13:01:53.945Z,62.12
2018-03-08T13:04:25.003Z,62.02
2018-03-08T13:06:56.701Z,61.16
2018-03-08T13:09:31.198Z,61.19
2018-03-08T13:12:05.854Z,61.08
2018-03-08T13:14:38.989Z,61.26
2018-03-08T13:17:11.216Z,62.22
2018-03-08T13:19:42.403Z,61.79
2018-03-08T13:22:14.010Z,61.64
2018-03-08T13:24:45.993Z,62.16
2018-03-08T13:27:17.466Z,62.69
2018-03-08T13:29:50.036Z,62.58
2018-03-08T13:32:22.343Z,62.28
2018-03-08T13:34:55.831Z,62.63
2018-03-08T13:37:27.182Z,63.76
2018-03-08T13:39:58.271Z,63.25
2018-03-08T13:42:33.500Z,63.67
2018-03-08T13:45:09.421Z,64.26
2018-03-08T13:47:44.889Z,63.74
2018-03-08T13:50:16.744Z,65.19
2018-03-08T13:52:48.545Z,65.15
2018-03-08T13:55:19.622Z,65.48
2018-03-08T13:57:52.240Z,64.89
2018-03-08T14:00:23.563Z,65.34
2018-03-08T14:02:57.139Z,65.72
2018-03-08T14:05:40.622Z,65.94
2018-03-08T14:08:22.395Z,66.06
2018-03-08T14:10:55.743Z,66.90
2018-03-08T14:13:27.750Z,67.08
2018-03-08T14:15:59.334Z,67.81
2018-03-08T14:18:30.962Z,68.77
2018-03-08T14:21:02.935Z,69.38
2018-03-08T14:23:34.251Z,69.64
2018-03-08T14:26:05.464Z,69.22
2018-03-08T14:28:36.700Z,69.15
2018-03-08T14:31:08.946Z,69.36
2018-03-08T14:33:41.093Z,69.29
2018-03-08T14:36:13.158Z,68.21
2018-03-08T14:38:44.113Z,68.56
2018-03-08T14:41:18.320Z,68.19
2018-03-08T14:43:52.751Z,68.13
2018-03-08T14:46:24.996Z,67.13
2018-03-08T14:48:56.643Z,68.08
2018-03-08T14:51:29.034Z,67.94
2018-03-08T14:54:11.807Z,67.70
2018-03-08T14:56:43.573Z,68.95
2018-03-08T14:59:14.666Z,69.41
2018-03-08T15:01:45.904Z,69.00
2018-03-08T15:04:16.862Z,68.08
2018-03-08T15:06:48.374Z,67.81
2018-03-08T15:09:21.379Z,68.13
2018-03-08T15:11:53.823Z,67.20
2018-03-08T15:14:27.796Z,66.52
2018-03-08T15:17:02.480Z,66.04
2018-03-08T15:19:34.989Z,66.71
2018-03-08T15:22:07.574Z,65.28
2018-03-08T15:24:39.180Z,65.15
2018-03-08T15:27:10.680Z,64.37
2018-03-08T15:29:42.159Z,64.58
2018-03-08T15:32:14.616Z,64.98
2018-03-08T15:35:08.318Z,64.53
2018-03-08T15:37:40.141Z,63.35
2018-03-08T15:40:11.784Z,63.98
2018-03-08T15:42:43.974Z,64.17
2018-03-08T15:45:18.210Z,64.57
2018-03-08T15:47:49.951Z,64.92
2018-03-08T15:50:21.898Z,65.29
2018-03-08T15:52:57.142Z,65.81
2018-03-08T15:55:29.590Z,65.94
2018-03-08T15:58:01.505Z,65.21
2018-03-08T16:00:33.467Z,65.58
2018-03-08T16:03:05.738Z,65.25
2018-03-08T16:05:38.198Z,64.67
2018-03-08T16:08:13.256Z,64.55
2018-03-08T16:10:45.095Z,65.09
2018-03-08T16:13:16.675Z,64.75
2018-03-08T16:15:47.889Z,64.31
2018-03-08T16:18:23.239Z,64.05
2018-03-08T16:20:58.546Z,64.41
2018-03-08T16:23:30.053Z,64.22
2018-03-08T16:26:02.518Z,63.74
2018-03-08T16:28:34.096Z,63.95
2018-03-08T16:31:04.993Z,63.83
2018-03-08T16:33:36.994Z,63.48
2018-03-08T16:36:09.490Z,63.17
2018-03-08T16:38:40.766Z,62.97
2018-03-08T16:41:12.669Z,62.04
2018-03-08T16:44:08.332Z,61.85
2018-03-08T16:47:03.248Z,62.49
2018-03-08T16:49:35.641Z,61.90
2018-03-08T16:52:07.828Z,61.30
2018-03-08T16:54:41.599Z,61.86
2018-03-08T16:57:15.053Z,61.54
2018-03-08T16:59:46.669Z,61.63
2018-03-08T17:02:27.371Z,61.77
2018-03-08T17:05:00.192Z,62.07
2018-03-08T17:07:44.902Z,62.36
2018-03-08T17:10:18.055Z,62.57
2018-03-08T17:12:52.504Z,62.34
2018-03-08T17:15:28.020Z,61.93
2018-03-08T17:20:40.869Z,61.82
2018-03-08T17:23:12.175Z,62.18
2018-03-08T17:25:43.919Z,62.09
2018-03-08T17:28:15.064Z,62.78
2018-03-08T17:30:47.913Z,62.55
2018-03-08T17:33:19.018Z,62.86
2018-03-08T17:35:50.795Z,62.70
2018-03-08T17:38:22.699Z,63.04
2018-03-08T17:41:00.370Z,62.84
2018-03-08T17:43:32.669Z,62.85
2018-03-08T17:46:05.752Z,63.01
2018-03-08T17:48:37.255Z,63.02
2018-03-08T17:51:08.156Z,63.40
2018-03-08T17:53:40.391Z,63.12
2018-03-08T17:56:11.344Z,63.74
2018-03-08T17:58:42.352Z,63.84
2018-03-08T18:01:14.721Z,64.15
2018-03-08T18:03:45.698Z,63.84
2018-03-08T18:06:18.217Z,63.81
2018-03-08T18:08:49.209Z,64.49
2018-03-08T18:11:21.097Z,64.41
2018-03-08T18:16:37.071Z,64.22
2018-03-08T18:19:12.054Z,64.19
2018-03-08T18:21:45.720Z,64.11
2018-03-08T18:24:19.288Z,63.66
2018-03-08T18:26:51.845Z,64.55
2018-03-08T18:29:27.176Z,64.73
2018-03-08T18:31:59.512Z,64.89
2018-03-08T18:34:31.587Z,64.68
2018-03-08T18:37:03.305Z,64.43
2018-03-08T18:39:35.631Z,65.24
2018-03-08T18:42:09.422Z,65.14
2018-03-08T18:44:42.891Z,64.71
2018-03-08T18:47:14.627Z,64.57
2018-03-08T18:49:48.366Z,64.43
2018-03-08T18:52:19.897Z,64.13
2018-03-08T18:54:51.974Z,64.03
2018-03-08T18:57:30.444Z,64.08
2018-03-08T19:02:53.450Z,65.17
2018-03-08T19:05:28.262Z,64.93
2018-03-08T19:07:59.550Z,64.38
2018-03-08T19:10:31.690Z,64.13
2018-03-08T19:13:03.302Z,63.92
2018-03-08T19:15:35.240Z,63.81
2018-03-08T19:18:08.281Z,63.88
2018-03-08T19:20:43.158Z,64.13
2018-03-08T19:23:21.238Z,64.21
2018-03-08T19:26:02.662Z,63.76
2018-03-08T19:28:35.164Z,63.51
2018-03-08T19:31:07.310Z,63.70
2018-03-08T19:33:38.382Z,63.60
2018-03-08T19:36:11.539Z,63.60
2018-03-08T19:38:45.222Z,63.72
2018-03-08T19:41:23.296Z,63.47
2018-03-08T19:43:55.748Z,63.46
2018-03-08T19:46:33.026Z,63.62
2018-03-08T19:49:24.845Z,63.97
2018-03-08T19:51:58.236Z,64.18
2018-03-08T19:54:29.283Z,64.24
2018-03-08T19:57:01.046Z,64.00
2018-03-08T19:59:32.072Z,63.68
2018-03-08T20:02:04.182Z,63.22
2018-03-08T20:04:45.933Z,63.48
2018-03-08T20:07:19.789Z,63.72
2018-03-08T20:09:51.459Z,63.56
2018-03-08T20:12:22.892Z,63.49
2018-03-08T20:14:54.774Z,63.44
2018-03-08T20:17:32.475Z,63.46
2018-03-08T20:20:03.878Z,63.33
2018-03-08T20:22:34.962Z,63.12
2018-03-08T20:25:06.768Z,63.27
2018-03-08T20:27:38.313Z,62.99
2018-03-08T20:30:09.908Z,63.20
2018-03-08T20:32:43.740Z,63.13
2018-03-08T20:35:14.722Z,63.42
2018-03-08T20:37:46.042Z,64.08
2018-03-08T20:40:17.405Z,64.29
2018-03-08T20:42:48.793Z,64.32
2018-03-08T20:45:21.617Z,64.74
2018-03-08T20:47:53.748Z,64.02
2018-03-08T20:50:24.976Z,63.89
2018-03-08T20:52:57.843Z,64.22
2018-03-08T20:55:28.843Z,63.78
2018-03-08T20:57:59.982Z,63.94
2018-03-08T21:00:35.048Z,63.98
2018-03-08T21:03:06.355Z,64.23
2018-03-08T21:05:39.975Z,64.14
2018-03-08T21:08:11.063Z,63.73
2018-03-08T21:10:42.030Z,64.05
2018-03-08T21:13:12.868Z,64.12
2018-03-08T21:15:43.928Z,64.47
2018-03-08T21:18:16.227Z,64.14
2018-03-08T21:20:47.259Z,64.11
2018-03-08T21:23:18.786Z,64.00
2018-03-08T21:25:50.431Z,63.75
2018-03-08T21:28:22.849Z,63.62
2018-03-08T21:30:54.542Z,63.76
2018-03-08T21:33:26.323Z,64.04
2018-03-08T21:38:42.844Z,63.73
2018-03-08T21:41:15.577Z,63.51
2018-03-08T21:43:46.984Z,63.52
2018-03-08T21:46:18.436Z,63.49
2018-03-08T21:48:49.778Z,63.12
2018-03-08T21:51:20.765Z,63.33
2018-03-08T21:53:51.871Z,63.15
2018-03-08T21:56:25.167Z,63.21
2018-03-08T21:58:56.506Z,63.19
2018-03-08T22:01:28.034Z,63.01
2018-03-08T22:04:00.468Z,63.04
2018-03-08T22:06:33.031Z,63.18
2018-03-08T22:09:05.306Z,62.88
2018-03-08T22:11:36.904Z,62.96
2018-03-08T22:14:08.980Z,63.25
2018-03-08T22:16:41.010Z,63.18
2018-03-08T22:19:12.982Z,62.99
2018-03-08T22:21:45.403Z,63.71
2018-03-08T22:24:16.789Z,63.66
2018-03-08T22:26:50.918Z,63.64
2018-03-08T22:29:24.084Z,63.64
2018-03-08T22:31:56.773Z,63.70
2018-03-08T22:34:31.502Z,63.90
2018-03-08T22:37:03.348Z,63.96
2018-03-08T22:39:37.288Z,63.72
2018-03-08T22:42:09.335Z,63.71
2018-03-08T22:44:40.873Z,63.38
2018-03-08T22:47:12.844Z,63.73
2018-03-08T22:49:44.157Z,63.93
2018-03-08T22:52:15.339Z,63.74
2018-03-08T22:54:47.010Z,63.80
2018-03-08T22:57:18.324Z,63.64
2018-03-08T22:59:49.307Z,63.66
2018-03-08T23:02:24.968Z,63.53
2018-03-08T23:04:56.628Z,63.35
2018-03-08T23:07:27.708Z,63.06
2018-03-08T23:09:58.705Z,63.24
2018-03-08T23:12:30.597Z,63.25
2018-03-08T23:15:03.873Z,63.09
2018-03-08T23:17:35.639Z,63.23
2018-03-08T23:20:06.978Z,63.40
2018-03-08T23:22:38.632Z,63.20
2018-03-08T23:25:09.929Z,63.25
2018-03-08T23:27:42.442Z,63.20
2018-03-08T23:30:16.126Z,62.98
2018-03-08T23:32:47.144Z,62.96
2018-03-08T23:35:18.627Z,63.19
2018-03-08T23:40:29.196Z,63.02
2018-03-08T23:43:00.667Z,63.00
2018-03-08T23:45:33.875Z,62.97
2018-03-08T23:48:06.265Z,62.93
2018-03-08T23:50:39.753Z,62.90
2018-03-08T23:53:10.880Z,63.13
2018-03-08T23:55:43.254Z,63.44
2018-03-08T23:58:15.868Z,63.68
